sensor_id;sensor_type;location;lat;lon;timestamp;P1;durP1;ratioP1;P2;durP2;ratioP2
60478;SDS011;46321;48.398;11.754;2023-03-05T00:00:10;32.92;;;12.32;;
60478;SDS011;46321;48.398;11.754;2023-03-05T00:02:37;33.38;;;12.23;;
60478;SDS011;46321;48.398;11.754;2023-03-05T00:05:03;38.58;;;13.77;;
60478;SDS011;46321;48.398;11.754;2023-03-05T00:07:29;34.28;;;12.88;;
60478;SDS011;46321;48.398;11.754;2023-03-05T00:09:54;37.25;;;13.07;;
60478;SDS011;46321;48.398;11.754;2023-03-05T00:12:19;37.30;;;13.55;;
60478;SDS011;46321;48.398;11.754;2023-03-05T00:14:44;33.22;;;13.07;;
60478;SDS011;46321;48.398;11.754;2023-03-05T00:17:10;34.20;;;12.90;;
60478;SDS011;46321;48.398;11.754;2023-03-05T00:19:35;30.02;;;12.02;;
60478;SDS011;46321;48.398;11.754;2023-03-05T00:22:00;34.65;;;12.52;;
60478;SDS011;46321;48.398;11.754;2023-03-05T00:24:25;40.25;;;13.57;;
60478;SDS011;46321;48.398;11.754;2023-03-05T00:26:51;35.22;;;13.40;;
60478;SDS011;46321;48.398;11.754;2023-03-05T00:29:18;35.05;;;13.27;;
60478;SDS011;46321;48.398;11.754;2023-03-05T00:31:44;35.90;;;13.43;;
60478;SDS011;46321;48.398;11.754;2023-03-05T00:34:11;34.95;;;13.73;;
60478;SDS011;46321;48.398;11.754;2023-03-05T00:36:38;30.50;;;12.43;;
60478;SDS011;46321;48.398;11.754;2023-03-05T00:39:05;35.88;;;13.98;;
60478;SDS011;46321;48.398;11.754;2023-03-05T00:41:30;36.58;;;13.40;;
60478;SDS011;46321;48.398;11.754;2023-03-05T00:43:56;38.85;;;12.55;;
60478;SDS011;46321;48.398;11.754;2023-03-05T00:46:21;33.50;;;13.65;;
60478;SDS011;46321;48.398;11.754;2023-03-05T00:48:47;33.47;;;12.75;;
60478;SDS011;46321;48.398;11.754;2023-03-05T00:51:12;34.92;;;13.27;;
60478;SDS011;46321;48.398;11.754;2023-03-05T00:53:37;33.78;;;13.52;;
60478;SDS011;46321;48.398;11.754;2023-03-05T00:56:03;37.60;;;12.15;;
60478;SDS011;46321;48.398;11.754;2023-03-05T00:58:28;34.92;;;13.05;;
60478;SDS011;46321;48.398;11.754;2023-03-05T01:00:57;37.13;;;13.50;;
60478;SDS011;46321;48.398;11.754;2023-03-05T01:03:24;40.47;;;15.18;;
60478;SDS011;46321;48.398;11.754;2023-03-05T01:05:49;34.45;;;13.02;;
60478;SDS011;46321;48.398;11.754;2023-03-05T01:08:14;39.67;;;14.70;;
60478;SDS011;46321;48.398;11.754;2023-03-05T01:10:40;38.85;;;14.82;;
60478;SDS011;46321;48.398;11.754;2023-03-05T01:13:06;41.63;;;14.73;;
60478;SDS011;46321;48.398;11.754;2023-03-05T01:15:31;35.72;;;12.77;;
60478;SDS011;46321;48.398;11.754;2023-03-05T01:17:56;36.58;;;14.27;;
60478;SDS011;46321;48.398;11.754;2023-03-05T01:20:22;44.08;;;14.95;;
60478;SDS011;46321;48.398;11.754;2023-03-05T01:22:47;37.45;;;14.70;;
60478;SDS011;46321;48.398;11.754;2023-03-05T01:25:13;41.92;;;14.38;;
60478;SDS011;46321;48.398;11.754;2023-03-05T01:27:39;41.38;;;14.98;;
60478;SDS011;46321;48.398;11.754;2023-03-05T01:30:05;38.55;;;14.30;;
60478;SDS011;46321;48.398;11.754;2023-03-05T01:32:32;38.45;;;14.70;;
60478;SDS011;46321;48.398;11.754;2023-03-05T01:34:57;41.28;;;15.30;;
60478;SDS011;46321;48.398;11.754;2023-03-05T01:37:24;41.58;;;14.70;;
60478;SDS011;46321;48.398;11.754;2023-03-05T01:39:49;42.92;;;14.75;;
60478;SDS011;46321;48.398;11.754;2023-03-05T01:42:14;43.42;;;16.30;;
60478;SDS011;46321;48.398;11.754;2023-03-05T01:44:57;45.60;;;15.52;;
60478;SDS011;46321;48.398;11.754;2023-03-05T01:47:24;49.15;;;15.73;;
60478;SDS011;46321;48.398;11.754;2023-03-05T01:49:49;43.40;;;14.55;;
60478;SDS011;46321;48.398;11.754;2023-03-05T01:52:16;44.53;;;15.50;;
60478;SDS011;46321;48.398;11.754;2023-03-05T01:57:19;44.13;;;15.90;;
60478;SDS011;46321;48.398;11.754;2023-03-05T01:59:51;47.45;;;16.88;;
60478;SDS011;46321;48.398;11.754;2023-03-05T02:02:19;43.85;;;15.65;;
60478;SDS011;46321;48.398;11.754;2023-03-05T02:04:49;45.35;;;15.13;;
60478;SDS011;46321;48.398;11.754;2023-03-05T02:07:19;37.13;;;14.80;;
60478;SDS011;46321;48.398;11.754;2023-03-05T02:09:45;40.40;;;14.88;;
60478;SDS011;46321;48.398;11.754;2023-03-05T02:12:10;42.70;;;15.60;;
60478;SDS011;46321;48.398;11.754;2023-03-05T02:14:37;45.30;;;16.90;;
60478;SDS011;46321;48.398;11.754;2023-03-05T02:17:05;46.80;;;16.13;;
60478;SDS011;46321;48.398;11.754;2023-03-05T02:19:44;42.65;;;14.90;;
60478;SDS011;46321;48.398;11.754;2023-03-05T02:22:15;40.25;;;14.98;;
60478;SDS011;46321;48.398;11.754;2023-03-05T02:24:42;41.10;;;15.40;;
60478;SDS011;46321;48.398;11.754;2023-03-05T02:27:08;41.78;;;14.85;;
60478;SDS011;46321;48.398;11.754;2023-03-05T02:29:33;44.75;;;15.75;;
60478;SDS011;46321;48.398;11.754;2023-03-05T02:32:03;42.60;;;15.05;;
60478;SDS011;46321;48.398;11.754;2023-03-05T02:34:28;43.50;;;16.15;;
60478;SDS011;46321;48.398;11.754;2023-03-05T02:36:53;44.35;;;16.20;;
60478;SDS011;46321;48.398;11.754;2023-03-05T02:39:19;42.38;;;14.88;;
60478;SDS011;46321;48.398;11.754;2023-03-05T02:41:45;40.60;;;14.63;;
60478;SDS011;46321;48.398;11.754;2023-03-05T02:44:10;40.45;;;15.52;;
60478;SDS011;46321;48.398;11.754;2023-03-05T02:46:35;47.92;;;15.48;;
60478;SDS011;46321;48.398;11.754;2023-03-05T02:49:00;47.35;;;16.27;;
60478;SDS011;46321;48.398;11.754;2023-03-05T02:51:26;44.55;;;15.98;;
60478;SDS011;46321;48.398;11.754;2023-03-05T02:53:51;43.58;;;16.17;;
60478;SDS011;46321;48.398;11.754;2023-03-05T02:56:17;41.95;;;15.02;;
60478;SDS011;46321;48.398;11.754;2023-03-05T02:58:42;42.20;;;15.43;;
60478;SDS011;46321;48.398;11.754;2023-03-05T03:01:08;48.40;;;15.88;;
60478;SDS011;46321;48.398;11.754;2023-03-05T03:03:34;48.70;;;16.05;;
60478;SDS011;46321;48.398;11.754;2023-03-05T03:06:00;45.40;;;15.60;;
60478;SDS011;46321;48.398;11.754;2023-03-05T03:08:26;45.08;;;15.93;;
60478;SDS011;46321;48.398;11.754;2023-03-05T03:10:51;46.92;;;15.15;;
60478;SDS011;46321;48.398;11.754;2023-03-05T03:13:16;40.88;;;14.82;;
60478;SDS011;46321;48.398;11.754;2023-03-05T03:15:42;46.72;;;14.77;;
60478;SDS011;46321;48.398;11.754;2023-03-05T03:18:07;39.00;;;15.57;;
60478;SDS011;46321;48.398;11.754;2023-03-05T03:20:32;44.60;;;15.00;;
60478;SDS011;46321;48.398;11.754;2023-03-05T03:22:58;43.22;;;14.75;;
60478;SDS011;46321;48.398;11.754;2023-03-05T03:25:24;43.65;;;15.95;;
60478;SDS011;46321;48.398;11.754;2023-03-05T03:27:49;47.92;;;15.48;;
60478;SDS011;46321;48.398;11.754;2023-03-05T03:30:15;49.67;;;15.02;;
60478;SDS011;46321;48.398;11.754;2023-03-05T03:32:40;52.67;;;16.67;;
60478;SDS011;46321;48.398;11.754;2023-03-05T03:35:06;46.10;;;15.80;;
60478;SDS011;46321;48.398;11.754;2023-03-05T03:37:32;45.22;;;15.93;;
60478;SDS011;46321;48.398;11.754;2023-03-05T03:39:57;46.78;;;16.55;;
60478;SDS011;46321;48.398;11.754;2023-03-05T03:42:23;50.22;;;16.67;;
60478;SDS011;46321;48.398;11.754;2023-03-05T03:44:48;45.05;;;15.10;;
60478;SDS011;46321;48.398;11.754;2023-03-05T03:47:13;43.30;;;14.85;;
60478;SDS011;46321;48.398;11.754;2023-03-05T03:49:39;48.10;;;16.13;;
60478;SDS011;46321;48.398;11.754;2023-03-05T03:52:04;51.40;;;17.73;;
60478;SDS011;46321;48.398;11.754;2023-03-05T03:54:30;46.08;;;14.98;;
60478;SDS011;46321;48.398;11.754;2023-03-05T03:56:55;39.05;;;15.23;;
60478;SDS011;46321;48.398;11.754;2023-03-05T03:59:20;51.78;;;17.40;;
60478;SDS011;46321;48.398;11.754;2023-03-05T04:01:46;44.50;;;16.90;;
60478;SDS011;46321;48.398;11.754;2023-03-05T04:04:11;43.63;;;15.88;;
60478;SDS011;46321;48.398;11.754;2023-03-05T04:06:37;46.80;;;15.52;;
60478;SDS011;46321;48.398;11.754;2023-03-05T04:09:02;52.85;;;15.73;;
60478;SDS011;46321;48.398;11.754;2023-03-05T04:11:28;51.17;;;16.08;;
60478;SDS011;46321;48.398;11.754;2023-03-05T04:13:54;47.15;;;16.55;;
60478;SDS011;46321;48.398;11.754;2023-03-05T04:16:19;40.90;;;14.93;;
60478;SDS011;46321;48.398;11.754;2023-03-05T04:18:45;42.28;;;15.55;;
60478;SDS011;46321;48.398;11.754;2023-03-05T04:21:10;45.33;;;15.55;;
60478;SDS011;46321;48.398;11.754;2023-03-05T04:23:36;48.67;;;15.80;;
60478;SDS011;46321;48.398;11.754;2023-03-05T04:26:01;42.70;;;16.13;;
60478;SDS011;46321;48.398;11.754;2023-03-05T04:28:27;43.63;;;15.30;;
60478;SDS011;46321;48.398;11.754;2023-03-05T04:30:52;47.60;;;15.40;;
60478;SDS011;46321;48.398;11.754;2023-03-05T04:33:17;45.47;;;16.30;;
60478;SDS011;46321;48.398;11.754;2023-03-05T04:35:43;48.13;;;17.15;;
60478;SDS011;46321;48.398;11.754;2023-03-05T04:38:08;42.45;;;15.18;;
60478;SDS011;46321;48.398;11.754;2023-03-05T04:40:34;40.35;;;14.95;;
60478;SDS011;46321;48.398;11.754;2023-03-05T04:43:00;47.95;;;15.95;;
60478;SDS011;46321;48.398;11.754;2023-03-05T04:45:25;41.92;;;15.68;;
60478;SDS011;46321;48.398;11.754;2023-03-05T04:47:50;45.20;;;15.25;;
60478;SDS011;46321;48.398;11.754;2023-03-05T04:50:16;47.10;;;15.43;;
60478;SDS011;46321;48.398;11.754;2023-03-05T04:52:42;43.20;;;14.73;;
60478;SDS011;46321;48.398;11.754;2023-03-05T04:55:08;44.33;;;15.13;;
60478;SDS011;46321;48.398;11.754;2023-03-05T04:57:34;44.17;;;16.15;;
60478;SDS011;46321;48.398;11.754;2023-03-05T05:00:00;44.38;;;15.55;;
60478;SDS011;46321;48.398;11.754;2023-03-05T05:02:25;41.25;;;14.75;;
60478;SDS011;46321;48.398;11.754;2023-03-05T05:04:53;46.40;;;14.80;;
60478;SDS011;46321;48.398;11.754;2023-03-05T05:07:19;46.22;;;15.38;;
60478;SDS011;46321;48.398;11.754;2023-03-05T05:09:44;43.70;;;15.00;;
60478;SDS011;46321;48.398;11.754;2023-03-05T05:12:10;42.47;;;14.45;;
60478;SDS011;46321;48.398;11.754;2023-03-05T05:14:35;41.85;;;14.05;;
60478;SDS011;46321;48.398;11.754;2023-03-05T05:17:01;41.67;;;14.43;;
60478;SDS011;46321;48.398;11.754;2023-03-05T05:19:29;35.92;;;13.32;;
60478;SDS011;46321;48.398;11.754;2023-03-05T05:21:55;45.10;;;14.30;;
60478;SDS011;46321;48.398;11.754;2023-03-05T05:24:20;41.83;;;15.05;;
60478;SDS011;46321;48.398;11.754;2023-03-05T05:26:45;41.42;;;14.65;;
60478;SDS011;46321;48.398;11.754;2023-03-05T05:29:11;40.03;;;14.32;;
60478;SDS011;46321;48.398;11.754;2023-03-05T05:31:36;42.33;;;14.32;;
60478;SDS011;46321;48.398;11.754;2023-03-05T05:34:01;41.38;;;15.00;;
60478;SDS011;46321;48.398;11.754;2023-03-05T05:36:26;39.83;;;14.30;;
60478;SDS011;46321;48.398;11.754;2023-03-05T05:38:52;36.15;;;13.65;;
60478;SDS011;46321;48.398;11.754;2023-03-05T05:41:17;40.20;;;14.10;;
60478;SDS011;46321;48.398;11.754;2023-03-05T05:43:42;37.95;;;14.38;;
60478;SDS011;46321;48.398;11.754;2023-03-05T05:46:10;39.03;;;13.65;;
60478;SDS011;46321;48.398;11.754;2023-03-05T05:48:38;33.83;;;12.35;;
60478;SDS011;46321;48.398;11.754;2023-03-05T05:51:04;40.50;;;14.23;;
60478;SDS011;46321;48.398;11.754;2023-03-05T05:53:30;39.00;;;13.48;;
60478;SDS011;46321;48.398;11.754;2023-03-05T05:55:56;36.80;;;12.68;;
60478;SDS011;46321;48.398;11.754;2023-03-05T05:58:21;38.22;;;13.82;;
60478;SDS011;46321;48.398;11.754;2023-03-05T06:00:46;37.00;;;13.35;;
60478;SDS011;46321;48.398;11.754;2023-03-05T06:03:12;36.28;;;13.27;;
60478;SDS011;46321;48.398;11.754;2023-03-05T06:05:37;35.90;;;13.10;;
60478;SDS011;46321;48.398;11.754;2023-03-05T06:08:04;36.20;;;13.85;;
60478;SDS011;46321;48.398;11.754;2023-03-05T06:10:29;35.00;;;12.27;;
60478;SDS011;46321;48.398;11.754;2023-03-05T06:12:55;38.50;;;13.32;;
60478;SDS011;46321;48.398;11.754;2023-03-05T06:15:20;32.80;;;12.45;;
60478;SDS011;46321;48.398;11.754;2023-03-05T06:17:45;42.90;;;12.93;;
60478;SDS011;46321;48.398;11.754;2023-03-05T06:20:12;36.50;;;13.13;;
60478;SDS011;46321;48.398;11.754;2023-03-05T06:22:38;36.35;;;12.70;;
60478;SDS011;46321;48.398;11.754;2023-03-05T06:25:04;33.58;;;12.43;;
60478;SDS011;46321;48.398;11.754;2023-03-05T06:27:30;32.97;;;12.70;;
60478;SDS011;46321;48.398;11.754;2023-03-05T06:29:56;36.22;;;12.52;;
60478;SDS011;46321;48.398;11.754;2023-03-05T06:32:21;34.35;;;12.55;;
60478;SDS011;46321;48.398;11.754;2023-03-05T06:34:48;35.45;;;12.70;;
60478;SDS011;46321;48.398;11.754;2023-03-05T06:37:14;33.22;;;12.70;;
60478;SDS011;46321;48.398;11.754;2023-03-05T06:39:39;38.80;;;12.55;;
60478;SDS011;46321;48.398;11.754;2023-03-05T06:42:04;36.25;;;13.30;;
60478;SDS011;46321;48.398;11.754;2023-03-05T06:44:30;35.78;;;12.82;;
60478;SDS011;46321;48.398;11.754;2023-03-05T06:46:55;35.33;;;12.57;;
60478;SDS011;46321;48.398;11.754;2023-03-05T06:49:20;30.77;;;12.00;;
60478;SDS011;46321;48.398;11.754;2023-03-05T06:51:46;38.40;;;12.88;;
60478;SDS011;46321;48.398;11.754;2023-03-05T06:54:12;37.38;;;13.10;;
60478;SDS011;46321;48.398;11.754;2023-03-05T06:56:40;36.75;;;13.10;;
60478;SDS011;46321;48.398;11.754;2023-03-05T06:59:07;39.42;;;13.85;;
60478;SDS011;46321;48.398;11.754;2023-03-05T07:01:34;33.90;;;12.10;;
60478;SDS011;46321;48.398;11.754;2023-03-05T07:04:00;36.00;;;12.82;;
60478;SDS011;46321;48.398;11.754;2023-03-05T07:06:27;38.00;;;13.75;;
60478;SDS011;46321;48.398;11.754;2023-03-05T07:08:56;36.55;;;13.32;;
60478;SDS011;46321;48.398;11.754;2023-03-05T07:11:22;32.90;;;13.20;;
60478;SDS011;46321;48.398;11.754;2023-03-05T07:13:48;38.40;;;14.00;;
60478;SDS011;46321;48.398;11.754;2023-03-05T07:16:16;36.20;;;13.55;;
60478;SDS011;46321;48.398;11.754;2023-03-05T07:18:46;36.78;;;13.57;;
60478;SDS011;46321;48.398;11.754;2023-03-05T07:21:19;41.65;;;13.60;;
60478;SDS011;46321;48.398;11.754;2023-03-05T07:23:46;39.78;;;13.85;;
60478;SDS011;46321;48.398;11.754;2023-03-05T07:26:12;35.88;;;13.07;;
60478;SDS011;46321;48.398;11.754;2023-03-05T07:28:37;40.97;;;14.70;;
60478;SDS011;46321;48.398;11.754;2023-03-05T07:31:04;36.22;;;12.43;;
60478;SDS011;46321;48.398;11.754;2023-03-05T07:33:35;35.63;;;13.70;;
60478;SDS011;46321;48.398;11.754;2023-03-05T07:36:01;31.70;;;13.25;;
60478;SDS011;46321;48.398;11.754;2023-03-05T07:38:28;34.67;;;12.35;;
60478;SDS011;46321;48.398;11.754;2023-03-05T07:40:53;40.10;;;14.30;;
60478;SDS011;46321;48.398;11.754;2023-03-05T07:43:18;40.42;;;14.13;;
60478;SDS011;46321;48.398;11.754;2023-03-05T07:45:44;35.17;;;13.35;;
60478;SDS011;46321;48.398;11.754;2023-03-05T07:48:17;37.80;;;14.23;;
60478;SDS011;46321;48.398;11.754;2023-03-05T07:50:44;40.83;;;13.63;;
60478;SDS011;46321;48.398;11.754;2023-03-05T07:53:10;35.72;;;13.90;;
60478;SDS011;46321;48.398;11.754;2023-03-05T07:55:40;36.75;;;13.43;;
60478;SDS011;46321;48.398;11.754;2023-03-05T07:58:10;36.83;;;13.68;;
60478;SDS011;46321;48.398;11.754;2023-03-05T08:00:37;37.08;;;13.93;;
60478;SDS011;46321;48.398;11.754;2023-03-05T08:03:03;38.50;;;14.35;;
60478;SDS011;46321;48.398;11.754;2023-03-05T08:05:28;37.10;;;13.43;;
60478;SDS011;46321;48.398;11.754;2023-03-05T08:07:54;40.50;;;14.13;;
60478;SDS011;46321;48.398;11.754;2023-03-05T08:10:19;46.30;;;14.98;;
60478;SDS011;46321;48.398;11.754;2023-03-05T08:12:44;34.28;;;13.63;;
60478;SDS011;46321;48.398;11.754;2023-03-05T08:15:10;36.28;;;13.25;;
60478;SDS011;46321;48.398;11.754;2023-03-05T08:17:35;37.53;;;13.30;;
60478;SDS011;46321;48.398;11.754;2023-03-05T08:20:01;42.72;;;14.90;;
60478;SDS011;46321;48.398;11.754;2023-03-05T08:22:31;40.53;;;15.18;;
60478;SDS011;46321;48.398;11.754;2023-03-05T08:24:57;40.88;;;14.20;;
60478;SDS011;46321;48.398;11.754;2023-03-05T08:27:23;39.53;;;13.80;;
60478;SDS011;46321;48.398;11.754;2023-03-05T08:29:48;39.58;;;14.38;;
60478;SDS011;46321;48.398;11.754;2023-03-05T08:32:13;42.63;;;15.48;;
60478;SDS011;46321;48.398;11.754;2023-03-05T08:34:39;35.75;;;13.90;;
60478;SDS011;46321;48.398;11.754;2023-03-05T08:37:04;36.25;;;14.50;;
60478;SDS011;46321;48.398;11.754;2023-03-05T08:39:31;38.67;;;13.85;;
60478;SDS011;46321;48.398;11.754;2023-03-05T08:41:57;38.50;;;14.27;;
60478;SDS011;46321;48.398;11.754;2023-03-05T08:44:22;33.53;;;13.27;;
60478;SDS011;46321;48.398;11.754;2023-03-05T08:46:47;35.60;;;13.25;;
60478;SDS011;46321;48.398;11.754;2023-03-05T08:49:13;37.65;;;13.48;;
60478;SDS011;46321;48.398;11.754;2023-03-05T08:51:39;35.75;;;13.32;;
60478;SDS011;46321;48.398;11.754;2023-03-05T08:54:04;38.50;;;14.20;;
60478;SDS011;46321;48.398;11.754;2023-03-05T08:56:32;39.95;;;14.43;;
60478;SDS011;46321;48.398;11.754;2023-03-05T08:58:58;37.92;;;14.40;;
60478;SDS011;46321;48.398;11.754;2023-03-05T09:01:23;40.83;;;14.88;;
60478;SDS011;46321;48.398;11.754;2023-03-05T09:03:49;38.15;;;14.07;;
60478;SDS011;46321;48.398;11.754;2023-03-05T09:06:14;40.60;;;15.25;;
60478;SDS011;46321;48.398;11.754;2023-03-05T09:08:40;37.80;;;13.98;;
60478;SDS011;46321;48.398;11.754;2023-03-05T09:11:06;40.85;;;14.20;;
60478;SDS011;46321;48.398;11.754;2023-03-05T09:13:33;40.17;;;14.88;;
60478;SDS011;46321;48.398;11.754;2023-03-05T09:15:59;41.58;;;15.35;;
60478;SDS011;46321;48.398;11.754;2023-03-05T09:18:26;45.95;;;14.52;;
60478;SDS011;46321;48.398;11.754;2023-03-05T09:20:52;36.10;;;14.73;;
60478;SDS011;46321;48.398;11.754;2023-03-05T09:23:20;37.22;;;14.18;;
60478;SDS011;46321;48.398;11.754;2023-03-05T09:25:46;36.17;;;12.75;;
60478;SDS011;46321;48.398;11.754;2023-03-05T09:28:21;38.38;;;14.25;;
60478;SDS011;46321;48.398;11.754;2023-03-05T09:31:10;52.83;;;19.67;;
60478;SDS011;46321;48.398;11.754;2023-03-05T09:33:38;48.70;;;18.00;;
60478;SDS011;46321;48.398;11.754;2023-03-05T09:36:12;34.03;;;13.82;;
60478;SDS011;46321;48.398;11.754;2023-03-05T09:38:41;40.20;;;13.93;;
60478;SDS011;46321;48.398;11.754;2023-03-05T09:52:20;47.00;;;20.40;;
60478;SDS011;46321;48.398;11.754;2023-03-05T09:54:53;37.85;;;13.98;;
60478;SDS011;46321;48.398;11.754;2023-03-05T09:57:21;40.15;;;14.20;;
60478;SDS011;46321;48.398;11.754;2023-03-05T09:59:53;41.10;;;16.60;;
60478;SDS011;46321;48.398;11.754;2023-03-05T10:02:25;40.38;;;16.38;;
60478;SDS011;46321;48.398;11.754;2023-03-05T10:07:59;39.93;;;15.30;;
60478;SDS011;46321;48.398;11.754;2023-03-05T10:10:34;43.45;;;16.20;;
60478;SDS011;46321;48.398;11.754;2023-03-05T10:13:13;35.03;;;14.25;;
60478;SDS011;46321;48.398;11.754;2023-03-05T10:15:52;35.13;;;13.90;;
60478;SDS011;46321;48.398;11.754;2023-03-05T10:18:47;40.08;;;15.20;;
60478;SDS011;46321;48.398;11.754;2023-03-05T10:21:23;38.53;;;14.05;;
60478;SDS011;46321;48.398;11.754;2023-03-05T10:23:59;34.20;;;13.30;;
60478;SDS011;46321;48.398;11.754;2023-03-05T10:26:57;37.67;;;13.25;;
60478;SDS011;46321;48.398;11.754;2023-03-05T10:29:38;38.67;;;13.48;;
60478;SDS011;46321;48.398;11.754;2023-03-05T10:45:38;32.85;;;13.02;;
60478;SDS011;46321;48.398;11.754;2023-03-05T10:48:14;36.85;;;14.05;;
60478;SDS011;46321;48.398;11.754;2023-03-05T10:50:48;35.15;;;13.43;;
60478;SDS011;46321;48.398;11.754;2023-03-05T10:53:22;33.88;;;13.02;;
60478;SDS011;46321;48.398;11.754;2023-03-05T10:55:51;34.65;;;13.63;;
60478;SDS011;46321;48.398;11.754;2023-03-05T10:58:20;32.47;;;13.15;;
60478;SDS011;46321;48.398;11.754;2023-03-05T11:01:00;33.42;;;12.73;;
60478;SDS011;46321;48.398;11.754;2023-03-05T11:03:33;44.08;;;17.10;;
60478;SDS011;46321;48.398;11.754;2023-03-05T11:06:11;39.33;;;16.20;;
60478;SDS011;46321;48.398;11.754;2023-03-05T11:08:37;30.50;;;12.85;;
60478;SDS011;46321;48.398;11.754;2023-03-05T11:11:16;30.23;;;12.43;;
60478;SDS011;46321;48.398;11.754;2023-03-05T11:16:16;29.98;;;11.98;;
60478;SDS011;46321;48.398;11.754;2023-03-05T11:18:44;32.22;;;12.32;;
60478;SDS011;46321;48.398;11.754;2023-03-05T11:21:11;34.80;;;13.00;;
60478;SDS011;46321;48.398;11.754;2023-03-05T11:23:42;32.92;;;12.43;;
60478;SDS011;46321;48.398;11.754;2023-03-05T11:26:18;32.03;;;12.65;;
60478;SDS011;46321;48.398;11.754;2023-03-05T11:33:59;30.55;;;12.38;;
60478;SDS011;46321;48.398;11.754;2023-03-05T11:36:39;29.73;;;11.75;;
60478;SDS011;46321;48.398;11.754;2023-03-05T11:41:38;33.55;;;13.63;;
60478;SDS011;46321;48.398;11.754;2023-03-05T11:44:10;31.85;;;12.32;;
60478;SDS011;46321;48.398;11.754;2023-03-05T11:46:43;33.30;;;11.30;;
60478;SDS011;46321;48.398;11.754;2023-03-05T11:49:14;29.77;;;11.43;;
60478;SDS011;46321;48.398;11.754;2023-03-05T11:51:44;33.63;;;12.65;;
60478;SDS011;46321;48.398;11.754;2023-03-05T11:54:14;27.17;;;11.95;;
60478;SDS011;46321;48.398;11.754;2023-03-05T11:56:45;31.52;;;12.02;;
60478;SDS011;46321;48.398;11.754;2023-03-05T12:01:41;34.83;;;13.63;;
60478;SDS011;46321;48.398;11.754;2023-03-05T12:04:12;31.08;;;12.35;;
60478;SDS011;46321;48.398;11.754;2023-03-05T12:12:15;27.90;;;11.30;;
60478;SDS011;46321;48.398;11.754;2023-03-05T12:14:54;32.05;;;11.60;;
60478;SDS011;46321;48.398;11.754;2023-03-05T12:17:27;26.85;;;11.18;;
60478;SDS011;46321;48.398;11.754;2023-03-05T12:20:04;28.98;;;10.85;;
60478;SDS011;46321;48.398;11.754;2023-03-05T12:22:38;30.30;;;11.25;;
60478;SDS011;46321;48.398;11.754;2023-03-05T12:25:17;34.38;;;12.82;;
60478;SDS011;46321;48.398;11.754;2023-03-05T12:27:49;32.45;;;12.30;;
60478;SDS011;46321;48.398;11.754;2023-03-05T12:32:59;26.13;;;11.02;;
60478;SDS011;46321;48.398;11.754;2023-03-05T12:35:28;28.48;;;10.93;;
60478;SDS011;46321;48.398;11.754;2023-03-05T12:40:28;26.38;;;10.73;;
60478;SDS011;46321;48.398;11.754;2023-03-05T12:43:02;28.42;;;10.70;;
60478;SDS011;46321;48.398;11.754;2023-03-05T12:45:30;29.83;;;10.65;;
60478;SDS011;46321;48.398;11.754;2023-03-05T12:52:50;24.10;;;10.75;;
60478;SDS011;46321;48.398;11.754;2023-03-05T12:55:27;29.92;;;11.05;;
60478;SDS011;46321;48.398;11.754;2023-03-05T12:57:58;25.75;;;10.48;;
60478;SDS011;46321;48.398;11.754;2023-03-05T13:03:02;33.25;;;13.85;;
60478;SDS011;46321;48.398;11.754;2023-03-05T13:05:46;27.52;;;10.80;;
60478;SDS011;46321;48.398;11.754;2023-03-05T13:10:53;25.25;;;10.85;;
60478;SDS011;46321;48.398;11.754;2023-03-05T13:13:20;26.35;;;10.80;;
60478;SDS011;46321;48.398;11.754;2023-03-05T13:15:48;22.75;;;10.07;;
60478;SDS011;46321;48.398;11.754;2023-03-05T13:18:18;31.05;;;11.10;;
60478;SDS011;46321;48.398;11.754;2023-03-05T13:20:45;24.05;;;9.80;;
60478;SDS011;46321;48.398;11.754;2023-03-05T13:28:23;27.05;;;11.18;;
60478;SDS011;46321;48.398;11.754;2023-03-05T13:30:50;20.98;;;9.27;;
60478;SDS011;46321;48.398;11.754;2023-03-05T13:33:19;17.05;;;8.38;;
60478;SDS011;46321;48.398;11.754;2023-03-05T13:35:49;19.52;;;7.50;;
60478;SDS011;46321;48.398;11.754;2023-03-05T13:38:22;19.05;;;6.90;;
60478;SDS011;46321;48.398;11.754;2023-03-05T13:43:53;18.10;;;7.20;;
60478;SDS011;46321;48.398;11.754;2023-03-05T13:46:25;16.00;;;6.90;;
60478;SDS011;46321;48.398;11.754;2023-03-05T13:49:15;18.50;;;6.95;;
60478;SDS011;46321;48.398;11.754;2023-03-05T13:51:42;12.67;;;7.17;;
60478;SDS011;46321;48.398;11.754;2023-03-05T13:54:10;18.58;;;6.80;;
60478;SDS011;46321;48.398;11.754;2023-03-05T13:56:47;14.35;;;7.35;;
60478;SDS011;46321;48.398;11.754;2023-03-05T13:59:18;18.40;;;6.68;;
60478;SDS011;46321;48.398;11.754;2023-03-05T14:01:45;17.20;;;7.28;;
60478;SDS011;46321;48.398;11.754;2023-03-05T14:04:16;14.82;;;6.88;;
60478;SDS011;46321;48.398;11.754;2023-03-05T14:07:07;15.43;;;6.47;;
60478;SDS011;46321;48.398;11.754;2023-03-05T14:09:45;14.48;;;6.43;;
60478;SDS011;46321;48.398;11.754;2023-03-05T14:12:21;18.48;;;7.50;;
60478;SDS011;46321;48.398;11.754;2023-03-05T14:15:18;14.65;;;6.60;;
60478;SDS011;46321;48.398;11.754;2023-03-05T14:17:48;17.48;;;7.10;;
60478;SDS011;46321;48.398;11.754;2023-03-05T14:22:48;16.67;;;6.60;;
60478;SDS011;46321;48.398;11.754;2023-03-05T14:25:34;20.45;;;7.88;;
60478;SDS011;46321;48.398;11.754;2023-03-05T14:28:04;17.95;;;7.18;;
60478;SDS011;46321;48.398;11.754;2023-03-05T14:30:29;18.42;;;7.20;;
60478;SDS011;46321;48.398;11.754;2023-03-05T14:32:56;18.52;;;7.07;;
60478;SDS011;46321;48.398;11.754;2023-03-05T14:35:24;17.75;;;8.30;;
60478;SDS011;46321;48.398;11.754;2023-03-05T14:37:52;17.75;;;7.20;;
60478;SDS011;46321;48.398;11.754;2023-03-05T14:40:30;19.73;;;8.43;;
60478;SDS011;46321;48.398;11.754;2023-03-05T14:43:04;21.35;;;8.05;;
60478;SDS011;46321;48.398;11.754;2023-03-05T14:45:35;19.70;;;7.32;;
60478;SDS011;46321;48.398;11.754;2023-03-05T14:48:07;16.65;;;6.82;;
60478;SDS011;46321;48.398;11.754;2023-03-05T14:50:37;14.00;;;6.75;;
60478;SDS011;46321;48.398;11.754;2023-03-05T14:53:08;20.80;;;6.85;;
60478;SDS011;46321;48.398;11.754;2023-03-05T14:55:37;17.02;;;6.88;;
60478;SDS011;46321;48.398;11.754;2023-03-05T14:58:10;19.55;;;7.13;;
60478;SDS011;46321;48.398;11.754;2023-03-05T15:00:37;15.07;;;7.00;;
60478;SDS011;46321;48.398;11.754;2023-03-05T15:03:02;16.50;;;6.70;;
60478;SDS011;46321;48.398;11.754;2023-03-05T15:05:28;15.93;;;7.20;;
60478;SDS011;46321;48.398;11.754;2023-03-05T15:07:53;13.13;;;6.45;;
60478;SDS011;46321;48.398;11.754;2023-03-05T15:10:20;14.77;;;6.32;;
60478;SDS011;46321;48.398;11.754;2023-03-05T15:12:47;17.85;;;6.95;;
60478;SDS011;46321;48.398;11.754;2023-03-05T15:15:16;16.10;;;6.38;;
60478;SDS011;46321;48.398;11.754;2023-03-05T15:17:44;16.00;;;6.32;;
60478;SDS011;46321;48.398;11.754;2023-03-05T15:20:14;14.77;;;6.72;;
60478;SDS011;46321;48.398;11.754;2023-03-05T15:22:42;14.82;;;6.30;;
60478;SDS011;46321;48.398;11.754;2023-03-05T15:25:07;17.08;;;6.78;;
60478;SDS011;46321;48.398;11.754;2023-03-05T15:27:33;16.40;;;6.60;;
60478;SDS011;46321;48.398;11.754;2023-03-05T15:29:58;13.07;;;6.13;;